createdAt,value
2018-11-14T00:00:22.523Z,5.67
2018-11-14T00:02:51.725Z,4.65
2018-11-14T00:05:20.513Z,4.70
2018-11-14T00:07:49.316Z,4.00
2018-11-14T00:10:18.727Z,4.95
2018-11-14T00:12:47.224Z,4.87
2018-11-14T00:15:17.700Z,5.47
2018-11-14T00:17:47.420Z,5.15
2018-11-14T00:20:16.291Z,5.12
2018-11-14T00:22:46.234Z,4.33
2018-11-14T00:25:15.049Z,4.47
2018-11-14T00:27:43.851Z,5.62
2018-11-14T00:30:18.142Z,5.17
2018-11-14T00:32:46.777Z,5.50
2018-11-14T00:35:15.641Z,5.10
2018-11-14T00:37:44.941Z,5.85
2018-11-14T00:40:14.805Z,5.97
2018-11-14T00:42:44.195Z,6.10
2018-11-14T00:45:14.765Z,6.05
2018-11-14T00:47:44.434Z,5.00
2018-11-14T00:50:14.182Z,5.47
2018-11-14T00:52:43.618Z,5.42
2018-11-14T00:55:15.137Z,5.22
2018-11-14T00:57:44.958Z,5.33
2018-11-14T01:00:16.065Z,5.10
2018-11-14T01:02:46.971Z,4.87
2018-11-14T01:05:16.533Z,4.97
2018-11-14T01:07:45.327Z,4.22
2018-11-14T01:10:15.915Z,4.35
2018-11-14T01:12:45.097Z,4.50
2018-11-14T01:15:15.869Z,5.22
2018-11-14T01:17:44.749Z,4.95
2018-11-14T01:20:15.415Z,4.58
2018-11-14T01:22:44.661Z,5.10
2018-11-14T01:25:14.618Z,5.70
2018-11-14T01:27:44.004Z,4.87
2018-11-14T01:30:19.112Z,5.10
2018-11-14T01:32:48.468Z,4.78
2018-11-14T01:35:17.629Z,6.05
2018-11-14T01:37:46.460Z,5.47
2018-11-14T01:40:17.859Z,6.50
2018-11-14T01:42:47.921Z,5.95
2018-11-14T01:45:16.791Z,6.95
2018-11-14T01:47:45.582Z,7.28
2018-11-14T01:50:14.397Z,7.60
2018-11-14T01:52:43.154Z,7.45
2018-11-14T01:55:13.711Z,7.33
2018-11-14T01:57:42.505Z,8.38
2018-11-14T02:00:13.862Z,9.55
2018-11-14T02:02:44.059Z,9.58
2018-11-14T02:05:12.941Z,10.05
2018-11-14T02:07:41.811Z,9.35
2018-11-14T02:10:12.321Z,11.05
2018-11-14T02:12:41.561Z,11.00
2018-11-14T02:15:17.739Z,10.80
2018-11-14T02:17:51.350Z,10.30
2018-11-14T02:20:24.444Z,10.55
2018-11-14T02:22:59.700Z,11.93
2018-11-14T02:25:32.953Z,11.95
2018-11-14T02:28:06.822Z,10.13
2018-11-14T02:30:43.106Z,10.25
2018-11-14T02:33:17.496Z,12.00
2018-11-14T02:35:51.878Z,10.10
2018-11-14T02:38:25.584Z,9.25
2018-11-14T02:40:59.438Z,10.53
2018-11-14T02:43:33.710Z,11.00
2018-11-14T02:46:10.463Z,10.65
2018-11-14T02:48:45.332Z,10.53
2018-11-14T02:51:29.573Z,10.88
2018-11-14T02:54:03.512Z,11.28
2018-11-14T02:56:37.524Z,10.50
2018-11-14T02:59:10.590Z,11.35
2018-11-14T03:01:44.521Z,10.88
2018-11-14T03:04:18.430Z,10.65
2018-11-14T03:06:52.201Z,10.90
2018-11-14T03:09:26.641Z,11.35
2018-11-14T03:11:59.683Z,11.70
2018-11-14T03:14:33.454Z,9.73
2018-11-14T03:17:06.384Z,10.70
2018-11-14T03:19:39.029Z,11.95
2018-11-14T03:22:11.289Z,11.63
2018-11-14T03:24:43.204Z,12.15
2018-11-14T03:27:15.721Z,10.48
2018-11-14T03:29:48.116Z,11.80
2018-11-14T03:32:20.666Z,11.70
2018-11-14T03:34:53.173Z,10.88
2018-11-14T03:37:25.448Z,11.18
2018-11-14T03:39:58.533Z,13.10
2018-11-14T03:42:31.357Z,12.70
2018-11-14T03:45:04.535Z,11.75
2018-11-14T03:47:38.898Z,12.25
2018-11-14T03:50:12.501Z,11.80
2018-11-14T03:52:45.916Z,12.47
2018-11-14T03:55:19.526Z,10.58
2018-11-14T03:57:52.407Z,11.75
2018-11-14T04:00:25.357Z,12.30
2018-11-14T04:02:57.954Z,11.28
2018-11-14T04:05:30.796Z,10.75
2018-11-14T04:08:03.157Z,10.48
2018-11-14T04:10:36.622Z,12.30
2018-11-14T04:13:08.226Z,12.55
2018-11-14T04:15:41.053Z,14.03
2018-11-14T04:18:13.724Z,12.88
2018-11-14T04:20:46.021Z,13.70
2018-11-14T04:23:18.873Z,12.98
2018-11-14T04:25:52.449Z,13.30
2018-11-14T04:28:26.072Z,14.33
2018-11-14T04:30:59.514Z,13.62
2018-11-14T04:33:31.870Z,15.48
2018-11-14T04:36:05.257Z,13.30
2018-11-14T04:38:38.273Z,12.88
2018-11-14T04:41:10.999Z,13.75
2018-11-14T04:43:44.073Z,12.07
2018-11-14T04:46:16.480Z,13.98
2018-11-14T04:48:49.894Z,13.00
2018-11-14T04:51:22.185Z,13.72
2018-11-14T04:53:55.437Z,12.68
2018-11-14T04:56:27.769Z,12.15
2018-11-14T04:58:59.842Z,12.47
2018-11-14T05:01:32.736Z,12.33
2018-11-14T05:04:05.669Z,12.35
2018-11-14T05:06:37.078Z,12.75
2018-11-14T05:09:13.014Z,12.10
2018-11-14T05:11:44.927Z,13.05
2018-11-14T05:14:18.924Z,13.10
2018-11-14T05:16:51.546Z,13.58
2018-11-14T05:19:24.151Z,13.08
2018-11-14T05:21:56.514Z,15.43
2018-11-14T05:24:29.122Z,14.55
2018-11-14T05:27:02.064Z,15.45
2018-11-14T05:29:30.854Z,14.00
2018-11-14T05:31:59.671Z,13.45
2018-11-14T05:34:28.633Z,11.18
2018-11-14T05:36:57.369Z,12.93
2018-11-14T05:39:26.181Z,13.30
2018-11-14T05:41:54.949Z,12.70
2018-11-14T05:44:23.669Z,13.20
2018-11-14T05:46:52.527Z,11.10
2018-11-14T05:49:21.718Z,12.45
2018-11-14T05:51:50.487Z,11.40
2018-11-14T05:54:19.240Z,11.83
2018-11-14T05:56:48.058Z,12.15
2018-11-14T05:59:16.849Z,10.35
2018-11-14T06:01:45.665Z,9.78
2018-11-14T06:04:14.464Z,10.32
2018-11-14T06:06:43.322Z,10.45
2018-11-14T06:09:13.505Z,10.98
2018-11-14T06:11:42.459Z,11.93
2018-11-14T06:14:11.219Z,11.90
2018-11-14T06:16:40.061Z,11.35
2018-11-14T06:19:08.804Z,12.63
2018-11-14T06:21:37.608Z,14.87
2018-11-14T06:24:06.458Z,13.38
2018-11-14T06:26:35.365Z,11.20
2018-11-14T06:29:04.256Z,11.35
2018-11-14T06:31:33.136Z,11.55
2018-11-14T06:34:02.158Z,12.07
2018-11-14T06:36:31.969Z,12.55
2018-11-14T06:39:00.761Z,12.28
2018-11-14T06:41:29.615Z,13.80
2018-11-14T06:43:58.404Z,12.53
2018-11-14T06:46:27.270Z,13.85
2018-11-14T06:48:56.079Z,11.85
2018-11-14T06:51:24.978Z,12.18
2018-11-14T06:53:53.813Z,11.63
2018-11-14T06:56:22.961Z,12.45
2018-11-14T06:58:52.951Z,12.80
2018-11-14T07:01:22.311Z,12.65
2018-11-14T07:03:51.112Z,12.20
2018-11-14T07:06:19.909Z,13.72
2018-11-14T07:08:48.772Z,12.95
2018-11-14T07:11:17.598Z,14.40
2018-11-14T07:13:46.716Z,12.78
2018-11-14T07:16:15.543Z,12.95
2018-11-14T07:18:44.349Z,14.68
2018-11-14T07:21:13.226Z,14.60
2018-11-14T07:23:42.062Z,14.45
2018-11-14T07:26:10.944Z,16.02
2018-11-14T07:28:39.641Z,13.18
2018-11-14T07:31:08.405Z,14.35
2018-11-14T07:33:37.198Z,15.30
2018-11-14T07:36:06.456Z,15.35
2018-11-14T07:38:44.340Z,15.65
2018-11-14T07:41:36.165Z,15.80
2018-11-14T07:44:09.993Z,15.18
2018-11-14T07:46:38.848Z,15.30
2018-11-14T07:49:07.673Z,16.23
2018-11-14T07:51:36.412Z,16.35
2018-11-14T07:54:05.707Z,21.07
2018-11-14T07:56:34.728Z,15.98
2018-11-14T07:59:04.180Z,16.30
2018-11-14T08:01:33.563Z,18.60
2018-11-14T08:04:03.242Z,15.65
2018-11-14T08:06:33.191Z,15.75
2018-11-14T08:09:03.213Z,15.63
2018-11-14T08:11:32.892Z,14.70
2018-11-14T08:14:03.048Z,13.72
2018-11-14T08:16:32.999Z,14.85
2018-11-14T08:19:02.676Z,13.83
2018-11-14T08:21:32.354Z,13.18
2018-11-14T08:24:01.976Z,13.70
2018-11-14T08:26:32.230Z,12.68
2018-11-14T08:29:01.881Z,12.25
2018-11-14T08:31:31.608Z,11.18
2018-11-14T08:34:06.589Z,12.65
2018-11-14T08:36:36.154Z,11.73
2018-11-14T08:39:07.206Z,12.73
2018-11-14T08:41:36.259Z,10.75
2018-11-14T08:44:05.159Z,11.03
2018-11-14T08:46:33.953Z,12.03
2018-11-14T08:49:02.689Z,12.10
2018-11-14T08:51:31.977Z,13.40
2018-11-14T08:54:01.506Z,13.22
2018-11-14T08:56:30.455Z,12.50
2018-11-14T08:58:59.342Z,12.10
2018-11-14T09:01:28.145Z,10.85
2018-11-14T09:04:09.982Z,11.12
2018-11-14T09:06:38.845Z,12.75
2018-11-14T09:09:10.113Z,10.50
2018-11-14T09:11:39.388Z,12.35
2018-11-14T09:14:08.309Z,11.05
2018-11-14T09:16:37.954Z,11.88
2018-11-14T09:19:06.817Z,10.38
2018-11-14T09:21:35.771Z,10.85
2018-11-14T09:24:04.658Z,11.95
2018-11-14T09:26:33.725Z,10.55
2018-11-14T09:29:02.932Z,11.70
2018-11-14T09:31:31.713Z,11.53
2018-11-14T09:34:00.463Z,11.48
2018-11-14T09:36:29.307Z,10.68
2018-11-14T09:38:58.109Z,10.30
2018-11-14T09:41:26.974Z,10.48
2018-11-14T09:43:56.025Z,9.55
2018-11-14T09:46:24.833Z,10.25
2018-11-14T09:48:53.696Z,11.00
2018-11-14T09:51:22.409Z,10.60
2018-11-14T09:53:51.974Z,10.40
2018-11-14T09:56:21.097Z,11.10
2018-11-14T09:58:51.519Z,9.63
2018-11-14T10:01:20.252Z,11.05
2018-11-14T10:03:49.803Z,11.10
2018-11-14T10:06:19.491Z,10.53
2018-11-14T10:08:48.761Z,12.55
2018-11-14T10:11:17.910Z,12.35
2018-11-14T10:13:46.699Z,13.95
2018-11-14T10:16:15.524Z,12.65
2018-11-14T10:18:44.544Z,11.95
2018-11-14T10:21:13.525Z,16.35
2018-11-14T10:23:45.538Z,13.48
2018-11-14T10:26:14.475Z,14.60
2018-11-14T10:28:43.381Z,13.13
2018-11-14T10:31:12.201Z,15.28
2018-11-14T10:33:41.054Z,14.50
2018-11-14T10:36:10.063Z,14.28
2018-11-14T10:38:39.074Z,15.68
2018-11-14T10:41:08.185Z,15.18
2018-11-14T10:43:37.233Z,15.08
2018-11-14T10:46:06.636Z,14.70
2018-11-14T10:48:35.604Z,15.63
2018-11-14T10:51:04.969Z,14.45
2018-11-14T10:53:33.972Z,14.53
2018-11-14T10:56:03.127Z,13.60
2018-11-14T10:58:32.440Z,15.08
2018-11-14T11:01:06.478Z,15.75
2018-11-14T11:03:36.177Z,14.83
2018-11-14T11:06:10.253Z,15.23
2018-11-14T11:09:00.564Z,17.50
2018-11-14T11:11:34.112Z,15.05
2018-11-14T11:14:08.429Z,14.53
2018-11-14T11:16:41.383Z,16.27
2018-11-14T11:19:15.018Z,19.42
2018-11-14T11:21:44.374Z,16.48
2018-11-14T11:24:14.182Z,14.70
2018-11-14T11:26:43.156Z,16.37
2018-11-14T11:29:12.467Z,15.25
2018-11-14T11:31:41.618Z,13.50
2018-11-14T11:34:11.223Z,14.28
2018-11-14T11:36:40.505Z,14.43
2018-11-14T11:39:11.423Z,14.95
2018-11-14T11:41:41.039Z,16.27
2018-11-14T11:44:10.205Z,14.90
2018-11-14T11:46:40.509Z,13.58
2018-11-14T11:49:10.784Z,13.75
2018-11-14T11:51:40.820Z,13.00
2018-11-14T11:54:10.102Z,12.10
2018-11-14T11:56:39.285Z,14.43
2018-11-14T11:59:08.717Z,15.78
2018-11-14T12:01:38.594Z,22.85
2018-11-14T12:04:11.586Z,24.70
2018-11-14T12:06:40.871Z,27.10
2018-11-14T12:09:12.291Z,30.57
2018-11-14T12:11:41.778Z,30.80
2018-11-14T12:14:14.443Z,33.53
2018-11-14T12:16:44.296Z,31.37
2018-11-14T12:19:13.172Z,36.23
2018-11-14T12:21:42.083Z,35.55
2018-11-14T12:24:10.903Z,32.28
2018-11-14T12:26:39.843Z,34.48
2018-11-14T12:31:53.782Z,32.93
2018-11-14T12:34:22.668Z,32.70
2018-11-14T12:36:52.848Z,32.03
2018-11-14T12:39:22.267Z,37.17
2018-11-14T12:41:52.588Z,34.45
2018-11-14T12:44:21.994Z,27.67
2018-11-14T12:46:50.837Z,31.45
2018-11-14T12:49:19.746Z,25.68
2018-11-14T12:51:48.969Z,25.77
2018-11-14T12:54:18.013Z,25.35
2018-11-14T12:56:46.861Z,27.17
2018-11-14T12:59:15.932Z,22.90
2018-11-14T13:01:44.790Z,25.85
2018-11-14T13:04:13.640Z,25.43
2018-11-14T13:06:42.545Z,24.85
2018-11-14T13:09:12.026Z,24.65
2018-11-14T13:11:42.326Z,24.23
2018-11-14T13:14:13.376Z,22.85
2018-11-14T13:16:43.465Z,23.45
2018-11-14T13:19:12.522Z,23.15
2018-11-14T13:21:41.714Z,21.57
2018-11-14T13:24:10.598Z,20.60
2018-11-14T13:26:39.824Z,22.02
2018-11-14T13:29:09.573Z,21.80
2018-11-14T13:31:39.580Z,20.45
2018-11-14T13:34:08.717Z,21.15
2018-11-14T13:36:40.392Z,20.57
2018-11-14T13:39:10.886Z,18.77
2018-11-14T13:41:40.446Z,19.85
2018-11-14T13:44:09.406Z,20.27
2018-11-14T13:46:38.317Z,19.32
2018-11-14T13:49:07.401Z,22.22
2018-11-14T13:51:38.116Z,21.15
2018-11-14T14:33:55.133Z,20.10
2018-11-14T14:36:26.471Z,21.55
2018-11-14T14:38:56.099Z,22.27
2018-11-14T14:41:25.446Z,19.90
2018-11-14T14:43:54.567Z,21.20
2018-11-14T14:46:24.033Z,23.00
2018-11-14T14:48:53.239Z,20.02
2018-11-14T14:51:22.078Z,25.60
2018-11-14T14:53:51.026Z,21.95
2018-11-14T14:56:20.169Z,23.35
2018-11-14T14:58:49.396Z,22.90
2018-11-14T15:01:18.368Z,23.05
2018-11-14T15:03:47.473Z,24.60
2018-11-14T15:06:16.665Z,24.30
2018-11-14T15:08:54.691Z,24.40
2018-11-14T15:11:29.916Z,26.42
2018-11-14T15:14:03.231Z,26.23
2018-11-14T15:16:35.092Z,25.60
2018-11-14T15:19:06.634Z,25.35
2018-11-14T15:21:37.588Z,25.57
2018-11-14T15:24:09.433Z,26.00
2018-11-14T15:26:42.110Z,26.77
2018-11-14T15:29:14.741Z,27.87
2018-11-14T15:31:45.725Z,25.88
2018-11-14T15:34:16.999Z,24.80
2018-11-14T15:36:49.058Z,25.30
2018-11-14T15:39:20.809Z,25.55
2018-11-14T15:41:52.962Z,27.42
2018-11-14T15:44:25.050Z,27.73
2018-11-14T15:46:57.335Z,27.40
2018-11-14T15:49:29.207Z,27.15
2018-11-14T15:52:00.800Z,29.45
2018-11-14T15:54:32.015Z,28.95
2018-11-14T15:57:03.831Z,29.12
2018-11-14T15:59:35.852Z,28.60
2018-11-14T16:02:07.765Z,29.20
2018-11-14T16:04:41.991Z,28.25
2018-11-14T16:07:14.182Z,27.40
2018-11-14T16:09:46.086Z,31.97
2018-11-14T16:12:17.318Z,32.20
2018-11-14T16:14:50.449Z,30.02
2018-11-14T16:17:23.566Z,32.13
2018-11-14T16:19:57.670Z,32.53
2018-11-14T16:22:30.147Z,32.08
2018-11-14T16:25:02.593Z,32.40
2018-11-14T16:27:35.995Z,31.25
2018-11-14T16:30:15.369Z,32.25
2018-11-14T16:32:48.676Z,33.85
2018-11-14T16:35:21.181Z,34.08
2018-11-14T16:37:50.117Z,32.17
2018-11-14T16:40:20.335Z,33.50
2018-11-14T16:42:49.884Z,31.52
2018-11-14T16:45:18.693Z,35.17
2018-11-14T16:47:47.852Z,35.48
2018-11-14T16:50:17.798Z,32.42
2018-11-14T16:52:46.763Z,33.95
2018-11-14T16:55:16.810Z,32.08
2018-11-14T16:57:46.306Z,29.77
2018-11-14T17:00:21.227Z,35.05
2018-11-14T17:02:50.383Z,27.98
2018-11-14T17:05:19.649Z,22.50
2018-11-14T17:07:48.681Z,18.10
2018-11-14T17:10:18.884Z,16.90
2018-11-14T17:12:50.573Z,15.00
2018-11-14T17:15:20.722Z,13.08
2018-11-14T17:17:50.384Z,11.75
2018-11-14T17:20:20.579Z,12.73
2018-11-14T17:22:50.389Z,10.98
2018-11-14T17:25:20.115Z,10.85
2018-11-14T17:27:49.318Z,11.25
2018-11-14T17:30:20.966Z,11.90
2018-11-14T17:32:50.076Z,11.00
2018-11-14T17:35:20.091Z,12.63
2018-11-14T17:37:49.094Z,11.80
2018-11-14T17:40:24.097Z,11.60
2018-11-14T17:42:55.612Z,13.18
2018-11-14T17:45:30.531Z,12.07
2018-11-14T17:47:59.814Z,13.93
2018-11-14T17:50:30.518Z,14.95
2018-11-14T17:53:00.860Z,14.78
2018-11-14T17:55:30.451Z,15.93
2018-11-14T17:57:59.447Z,15.43
2018-11-14T18:00:30.181Z,15.85
2018-11-14T18:03:00.653Z,16.02
2018-11-14T18:05:31.347Z,15.95
2018-11-14T18:08:00.190Z,15.63
2018-11-14T18:10:30.169Z,19.32
2018-11-14T18:12:59.965Z,17.35
2018-11-14T18:15:28.820Z,17.60
2018-11-14T18:17:58.257Z,19.17
2018-11-14T18:20:28.419Z,17.95
2018-11-14T18:22:57.301Z,22.10
2018-11-14T18:25:26.301Z,20.20
2018-11-14T18:27:55.118Z,18.95
2018-11-14T18:30:25.263Z,18.85
2018-11-14T18:32:54.862Z,20.15
2018-11-14T18:35:24.437Z,19.65
2018-11-14T18:37:54.513Z,17.62
2018-11-14T18:40:24.733Z,22.20
2018-11-14T18:42:53.666Z,20.15
2018-11-14T18:45:29.992Z,20.32
2018-11-14T18:48:00.283Z,19.30
2018-11-14T18:50:29.283Z,18.67
2018-11-14T18:52:58.906Z,20.57
2018-11-14T18:55:32.885Z,19.80
2018-11-14T18:58:03.417Z,18.60
2018-11-14T19:00:33.479Z,19.40
2018-11-14T19:03:07.390Z,21.50
2018-11-14T19:08:32.413Z,19.00
2018-11-14T19:11:05.818Z,21.85
2018-11-14T19:13:38.565Z,24.02
2018-11-14T19:16:07.536Z,22.22
2018-11-14T19:18:37.550Z,20.10
2018-11-14T19:21:06.783Z,21.55
2018-11-14T19:23:35.624Z,21.20
2018-11-14T19:26:05.077Z,21.45
2018-11-14T19:28:34.339Z,20.43
2018-11-14T19:31:04.082Z,20.23
2018-11-14T19:33:33.123Z,21.60
2018-11-14T19:36:02.353Z,21.17
2018-11-14T19:38:31.426Z,20.55
2018-11-14T19:41:00.807Z,20.15
2018-11-14T19:43:30.572Z,19.82
2018-11-14T19:45:59.963Z,21.10
2018-11-14T19:48:28.882Z,22.77
2018-11-14T19:50:58.038Z,21.80
2018-11-14T19:53:27.439Z,21.85
2018-11-14T19:55:56.490Z,21.27
2018-11-14T19:58:25.253Z,21.55
2018-11-14T20:00:54.251Z,23.30
2018-11-14T20:03:24.829Z,32.70
2018-11-14T20:05:53.623Z,23.00
2018-11-14T20:08:22.446Z,22.25
2018-11-14T20:10:56.049Z,22.62
2018-11-14T20:13:25.590Z,19.45
2018-11-14T20:15:54.643Z,20.62
2018-11-14T20:18:23.457Z,21.85
2018-11-14T20:20:52.804Z,21.93
2018-11-14T20:23:21.986Z,20.62
2018-11-14T20:25:52.233Z,22.90
2018-11-14T20:28:21.022Z,23.10
2018-11-14T20:30:50.092Z,24.10
2018-11-14T20:33:18.996Z,25.55
2018-11-14T20:35:48.597Z,24.50
2018-11-14T20:38:17.568Z,25.75
2018-11-14T20:40:46.943Z,24.27
2018-11-14T20:43:15.807Z,23.40
2018-11-14T20:45:44.630Z,23.27
2018-11-14T20:48:13.713Z,21.48
2018-11-14T20:50:42.653Z,21.82
2018-11-14T20:53:12.145Z,22.32
2018-11-14T20:55:41.875Z,23.57
2018-11-14T20:58:10.738Z,22.95
2018-11-14T21:00:40.048Z,23.77
2018-11-14T21:03:14.731Z,22.67
2018-11-14T21:05:48.098Z,21.73
2018-11-14T21:08:16.992Z,21.07
2018-11-14T21:10:47.089Z,21.02
2018-11-14T21:13:15.926Z,22.70
2018-11-14T21:15:44.866Z,23.05
2018-11-14T21:18:14.114Z,23.50
2018-11-14T21:20:43.494Z,22.62
2018-11-14T21:23:12.558Z,21.90
2018-11-14T21:25:41.857Z,23.30
2018-11-14T21:28:10.660Z,24.98
2018-11-14T21:30:39.553Z,22.35
2018-11-14T21:33:09.365Z,22.67
2018-11-14T21:35:38.294Z,22.62
2018-11-14T21:38:08.559Z,24.80
2018-11-14T21:40:37.423Z,24.85
2018-11-14T21:43:07.332Z,23.98
2018-11-14T21:45:36.282Z,21.73
2018-11-14T21:48:10.399Z,23.70
2018-11-14T21:50:39.186Z,23.02
2018-11-14T21:53:07.999Z,21.45
2018-11-14T21:55:36.710Z,23.20
2018-11-14T21:58:06.548Z,25.88
2018-11-14T22:00:38.954Z,23.75
2018-11-14T22:03:08.845Z,22.93
2018-11-14T22:05:38.561Z,23.30
2018-11-14T22:08:07.906Z,24.55
2018-11-14T22:10:37.533Z,20.40
2018-11-14T22:13:06.680Z,20.48
2018-11-14T22:15:35.581Z,21.87
2018-11-14T22:18:04.317Z,22.52
2018-11-14T22:20:33.359Z,20.90
2018-11-14T22:23:02.276Z,22.02
2018-11-14T22:25:31.249Z,22.35
2018-11-14T22:28:00.401Z,21.75
2018-11-14T22:30:33.198Z,22.48
2018-11-14T22:33:02.143Z,21.23
2018-11-14T22:35:32.027Z,20.88
2018-11-14T22:38:00.817Z,21.55
2018-11-14T22:40:31.017Z,23.27
2018-11-14T22:42:59.934Z,21.00
2018-11-14T22:45:30.022Z,21.42
2018-11-14T22:47:58.801Z,21.68
2018-11-14T22:50:27.935Z,20.43
2018-11-14T22:52:56.702Z,21.87
2018-11-14T22:55:26.372Z,22.55
2018-11-14T22:57:55.413Z,19.85
2018-11-14T23:00:26.956Z,20.70
2018-11-14T23:02:57.054Z,21.20
2018-11-14T23:05:25.843Z,21.20
2018-11-14T23:07:55.398Z,17.55
2018-11-14T23:10:25.621Z,23.00
2018-11-14T23:12:54.580Z,21.73
2018-11-14T23:15:23.950Z,19.85
2018-11-14T23:17:52.887Z,20.68
2018-11-14T23:20:22.384Z,20.70
2018-11-14T23:22:53.313Z,19.37
2018-11-14T23:25:22.896Z,18.85
2018-11-14T23:27:52.732Z,20.23
2018-11-14T23:30:23.022Z,19.52
2018-11-14T23:32:53.479Z,20.25
2018-11-14T23:35:23.910Z,18.12
2018-11-14T23:37:54.506Z,19.62
2018-11-14T23:40:23.414Z,18.25
2018-11-14T23:42:53.584Z,18.30
2018-11-14T23:45:23.248Z,19.85
2018-11-14T23:47:52.156Z,17.32
2018-11-14T23:50:22.142Z,19.05
2018-11-14T23:52:52.521Z,18.70
2018-11-14T23:55:22.385Z,17.48
2018-11-14T23:57:51.158Z,18.57
